San Jose, Costa Rica

6:32 AM CST on May 25, 2015 (GMT -0600)
Pozos de Santa Ana | | Change Station
CLOSE
Current Station
Personal Weather Station
Location: San Jos, SAN JOS
Elevation: 2825 ft
Nearby Weather Stations

Elev 2825 ft 9.96 °N, 84.19 °W | Updated 2 seconds ago

Mostly Cloudy
Mostly Cloudy
73.2 °F
Feels Like 74 °F
N
7.2
Wind Variable Wind from SE
Gusts 9.8 mph

Today
High -- | Low -- °F
--% Chance of Precip.
Yesterday
High -- | Low -- °F
Precip. -- in
5:14 AM 5:53 PM
Waxing Crescent, 48% visible
Pressure 30.01 in
Visibility 6.2 miles
Clouds Few 4000 ft
Scattered Clouds 7000 ft
Mostly Cloudy 12000 ft
Heat Index 74 °F
Dew Point 65 °F
Humidity 75%
Rainfall 0.00 in
Snow Depth Not available.
UV 1.0 out of 12
Pollen Not available.
Air Quality Not available.
Flu Activity Not available.
METAR MROC 251200Z 11009KT 9999 FEW040 SCT070 BKN120 21/17 A3001 NOSIG

More Conditions Fewer Conditions

Pressure 30.01 in
Visibility 6.2 miles
Clouds Few 4000 ft
Scattered Clouds 7000 ft
Mostly Cloudy 12000 ft
Heat Index 74 °F
Dew Point 65 °F
Humidity 75%
Rainfall 0.00 in
Snow Depth Not available.
UV 1.0 out of 12
Pollen Not available.
Air Quality Not available.
Flu Activity Not available.
METAR MROC 251200Z 11009KT 9999 FEW040 SCT070 BKN120 21/17 A3001 NOSIG

More Conditions Fewer Conditions

10-Day Weather Forecast

Almanac

Astronomy

May. 25, 2015 Rise Set
Actual Time
Civil Twilight
Nautical Twilight
Astronomical Twilight
Moon
Length of Visible Light
Length of Day
Tomorrow will be .
, % of the Moon is Illuminated

Today's Extremes

Country Highs Country Lows

Community

WunderPhotos

Upload Photos

1,823,986 photos uploaded!

WunderBlogs® & News

Nearby

Air Quality

  Air Quality AQ Index Pollutant
Not available.

Snow Depth

Station Depth Elevation

Earthquake Activity

City Distance Mag. Time & Date
Minimum magnitude displayed is 2.5.

Coastal Water Temperatures

Place Temperature

Stations

Nearby Weather Stations

Station Location Temp. Windchill Dew Point Humidity Wind Precip. Elev Updated Type